createdAt,value
2023-03-29T00:01:35.602Z,5.3
2023-03-29T00:04:04.583Z,5.3
2023-03-29T00:06:35.060Z,5
2023-03-29T00:09:06.304Z,5.3
2023-03-29T00:11:36.485Z,5.2
2023-03-29T00:14:06.917Z,5.2
2023-03-29T00:16:37.115Z,5.3
2023-03-29T00:19:08.074Z,5.4
2023-03-29T00:21:38.577Z,5.4
2023-03-29T00:24:09.405Z,5.3
2023-03-29T00:26:40.142Z,5.3
2023-03-29T00:29:10.353Z,5.2
2023-03-29T00:31:41.179Z,5.2
2023-03-29T00:34:11.700Z,5.1
2023-03-29T00:36:42.192Z,5.3
2023-03-29T00:39:12.439Z,5.2
2023-03-29T00:41:43.658Z,5.1
2023-03-29T00:44:13.908Z,5.1
2023-03-29T00:46:44.141Z,5
2023-03-29T00:49:14.453Z,5
2023-03-29T00:51:44.593Z,4.9
2023-03-29T00:54:15.393Z,5
2023-03-29T00:56:46.508Z,5
2023-03-29T00:59:17.092Z,5
2023-03-29T01:01:47.733Z,5
2023-03-29T01:04:18.497Z,5.1
2023-03-29T01:06:48.609Z,5.1
2023-03-29T01:09:19.370Z,5
2023-03-29T01:11:49.612Z,5.1
2023-03-29T01:14:20.216Z,5.1
2023-03-29T01:16:49.921Z,5
2023-03-29T01:19:19.984Z,5
2023-03-29T01:21:50.760Z,5
2023-03-29T01:24:22.424Z,5
2023-03-29T01:26:52.636Z,4.9
2023-03-29T01:29:23.591Z,4.9
2023-03-29T01:31:54.327Z,4.7
2023-03-29T01:34:25.078Z,4.9
2023-03-29T01:36:55.386Z,4.8
2023-03-29T01:39:25.921Z,4.8
2023-03-29T01:41:56.274Z,4.8
2023-03-29T01:44:27.348Z,4.8
2023-03-29T01:46:57.701Z,4.8
2023-03-29T01:49:28.520Z,4.8
2023-03-29T01:51:59.038Z,4.8
2023-03-29T01:54:27.797Z,4.8
2023-03-29T01:56:58.585Z,4.9
2023-03-29T01:59:28.939Z,4.9
2023-03-29T02:01:59.439Z,4.8
2023-03-29T02:04:29.327Z,4.8
2023-03-29T02:07:00.247Z,4.7
2023-03-29T02:09:31.191Z,4.7
2023-03-29T02:12:01.341Z,4.7
2023-03-29T02:14:31.417Z,4.7
2023-03-29T02:17:02.110Z,4.7
2023-03-29T02:19:34.826Z,4.7
2023-03-29T02:22:05.222Z,4.7
2023-03-29T02:24:35.742Z,4.6
2023-03-29T02:27:06.621Z,4.6
2023-03-29T02:29:36.814Z,4.6
2023-03-29T02:32:07.008Z,4.6
2023-03-29T02:34:37.225Z,4.6
2023-03-29T02:37:08.029Z,4.6
2023-03-29T02:39:38.769Z,4.6
2023-03-29T02:42:09.011Z,4.5
2023-03-29T02:44:39.472Z,4.5
2023-03-29T02:47:09.728Z,4.5
2023-03-29T02:49:40.296Z,4.5
2023-03-29T02:52:10.697Z,4.6
2023-03-29T02:54:41.711Z,4.5
2023-03-29T02:57:11.977Z,4.4
2023-03-29T02:59:42.391Z,4.5
2023-03-29T03:02:12.693Z,4.5
2023-03-29T03:04:43.131Z,4.6
2023-03-29T03:07:13.556Z,4.6
2023-03-29T03:09:43.964Z,4.5
2023-03-29T03:12:14.225Z,4.6
2023-03-29T03:14:44.570Z,4.6
2023-03-29T03:17:15.308Z,4.6
2023-03-29T03:19:45.907Z,4.6
2023-03-29T03:22:16.191Z,4.6
2023-03-29T03:24:46.608Z,4.5
2023-03-29T03:27:17.134Z,4.6
2023-03-29T03:29:47.747Z,4.6
2023-03-29T03:32:18.115Z,4.5
2023-03-29T03:34:49.059Z,4.5
2023-03-29T03:37:19.601Z,4.7
2023-03-29T03:39:50.269Z,4.6
2023-03-29T03:42:20.448Z,4.7
2023-03-29T03:44:51.837Z,4.6
2023-03-29T03:47:22.216Z,4.6
2023-03-29T03:49:52.602Z,4.6
2023-03-29T03:52:24.847Z,4.6
2023-03-29T03:54:55.841Z,4.6
2023-03-29T03:57:26.258Z,4.5
2023-03-29T03:59:57.187Z,4.5
2023-03-29T04:02:28.286Z,4.4
2023-03-29T04:04:59.929Z,4.3
2023-03-29T04:07:31.264Z,4.4
2023-03-29T04:10:01.944Z,4.4
2023-03-29T04:12:32.475Z,4.4
2023-03-29T04:15:03.182Z,4.5
2023-03-29T04:17:33.849Z,4.5
2023-03-29T04:20:04.403Z,4.4
2023-03-29T04:22:36.603Z,4.3
2023-03-29T04:25:08.127Z,4.3
2023-03-29T04:27:38.370Z,4.4
2023-03-29T04:30:08.647Z,4.3
2023-03-29T04:32:39.283Z,4.3
2023-03-29T04:35:09.669Z,4.3
2023-03-29T04:37:40.890Z,4.3
2023-03-29T04:40:11.370Z,4.4
2023-03-29T04:42:42.573Z,4.5
2023-03-29T04:45:13.265Z,4.5
2023-03-29T04:47:44.507Z,4.5
2023-03-29T04:50:15.539Z,4.6
2023-03-29T04:52:45.796Z,4.6
2023-03-29T04:55:16.388Z,4.7
2023-03-29T04:57:47.133Z,4.8
2023-03-29T05:00:18.597Z,4.7
2023-03-29T05:02:49.309Z,4.8
2023-03-29T05:05:19.810Z,4.8
2023-03-29T05:07:49.730Z,5
2023-03-29T05:10:20.042Z,5
2023-03-29T05:12:50.548Z,5
2023-03-29T05:15:20.363Z,5.1
2023-03-29T05:17:54.128Z,5.1
2023-03-29T05:20:25.317Z,5.2
2023-03-29T05:22:55.498Z,5.3
2023-03-29T05:25:25.925Z,5.3
2023-03-29T05:27:56.188Z,5.3
2023-03-29T05:30:27.823Z,5.3
2023-03-29T05:32:57.969Z,5.5
2023-03-29T05:35:28.241Z,5.3
2023-03-29T05:37:58.169Z,5.6
2023-03-29T05:40:28.928Z,5.6
2023-03-29T05:43:06.029Z,5.6
2023-03-29T05:45:37.085Z,5.8
2023-03-29T05:48:07.747Z,5.9
2023-03-29T05:50:38.001Z,5.9
2023-03-29T05:53:17.905Z,5.9
2023-03-29T05:55:47.136Z,5.9
2023-03-29T05:58:17.193Z,6
2023-03-29T06:00:48.367Z,6.2
2023-03-29T06:05:57.766Z,6.3
2023-03-29T06:08:28.709Z,6.4
2023-03-29T06:10:58.860Z,6.5
2023-03-29T06:13:29.178Z,6.6
2023-03-29T06:15:59.711Z,6.7
2023-03-29T06:18:29.810Z,6.7
2023-03-29T06:21:00.482Z,6.8
2023-03-29T06:23:30.556Z,6.9
2023-03-29T06:26:00.951Z,6.9
2023-03-29T06:28:31.948Z,6.9
2023-03-29T06:31:03.010Z,6.9
2023-03-29T06:33:32.528Z,7
2023-03-29T06:36:04.402Z,7.1
2023-03-29T06:38:34.707Z,7.2
2023-03-29T06:41:05.708Z,7.3
2023-03-29T06:43:40.663Z,7.4
2023-03-29T06:46:11.158Z,7.4
2023-03-29T06:48:41.738Z,7.3
2023-03-29T06:51:12.105Z,7.3
2023-03-29T06:53:43.349Z,7.2
2023-03-29T06:56:13.766Z,7.4
2023-03-29T06:58:47.964Z,7.4
2023-03-29T07:01:17.873Z,7.3
2023-03-29T07:03:48.321Z,7.3
2023-03-29T07:06:18.481Z,7.3
2023-03-29T07:08:48.514Z,7.2
2023-03-29T07:11:17.411Z,7.4
2023-03-29T07:13:47.580Z,7.7
2023-03-29T07:16:17.873Z,7.8
2023-03-29T07:18:47.746Z,7.9
2023-03-29T07:21:16.666Z,8
2023-03-29T07:23:46.975Z,8.2
2023-03-29T07:26:28.506Z,8.3
2023-03-29T07:28:47.984Z,8.4
2023-03-29T07:31:19.009Z,8.5
2023-03-29T07:33:52.275Z,8.4
2023-03-29T07:36:22.961Z,8.6
2023-03-29T07:38:55.193Z,8.6
2023-03-29T07:41:23.982Z,8.7
2023-03-29T07:44:01.411Z,8.9
2023-03-29T07:46:30.917Z,8.9
2023-03-29T07:49:01.114Z,8.8
2023-03-29T07:51:31.323Z,8.9
2023-03-29T07:54:01.803Z,8.9
2023-03-29T07:56:31.956Z,9.1
2023-03-29T07:59:02.105Z,9.1
2023-03-29T08:01:33.297Z,9.1
2023-03-29T08:04:04.276Z,9.2
2023-03-29T08:06:34.775Z,9.3
2023-03-29T08:09:08.928Z,9.3
2023-03-29T08:11:39.340Z,9.3
2023-03-29T08:14:09.896Z,9.2
2023-03-29T08:16:42.195Z,9.2
2023-03-29T08:19:12.801Z,9.3
2023-03-29T08:21:44.628Z,9.5
2023-03-29T08:24:15.573Z,9.6
2023-03-29T08:26:50.887Z,9.5
2023-03-29T08:29:24.822Z,9.5
2023-03-29T08:31:59.506Z,9.6
2023-03-29T08:34:29.744Z,9.7
2023-03-29T08:36:59.876Z,9.8
2023-03-29T08:39:30.403Z,10.1
2023-03-29T08:42:00.335Z,10.2
2023-03-29T08:44:30.317Z,10.2
2023-03-29T08:47:00.960Z,10.2
2023-03-29T08:49:34.444Z,10.3
2023-03-29T08:52:05.914Z,10.4
2023-03-29T08:54:36.685Z,10.6
2023-03-29T08:57:07.927Z,10.7
2023-03-29T08:59:41.670Z,10.8
2023-03-29T09:02:18.109Z,10.8
2023-03-29T09:04:48.666Z,10.9
2023-03-29T09:07:20.356Z,10.7
2023-03-29T09:09:52.085Z,10.8
2023-03-29T09:12:24.123Z,11
2023-03-29T09:14:54.419Z,11
2023-03-29T09:17:25.245Z,11
2023-03-29T09:19:57.550Z,11
2023-03-29T09:22:28.461Z,11.1
2023-03-29T09:25:00.587Z,11
2023-03-29T09:27:31.964Z,11.2
2023-03-29T09:30:03.452Z,11.1
2023-03-29T09:32:33.575Z,11.1
2023-03-29T09:35:04.291Z,11
2023-03-29T09:37:34.900Z,10.9
2023-03-29T09:40:05.630Z,10.7
2023-03-29T09:42:36.415Z,10.8
2023-03-29T09:45:07.005Z,10.9
2023-03-29T09:47:39.178Z,11.2
2023-03-29T09:50:16.815Z,11.2
2023-03-29T09:52:40.533Z,11.1
2023-03-29T09:55:10.839Z,11.2
2023-03-29T09:57:41.532Z,11.2
2023-03-29T10:00:11.685Z,11.3
2023-03-29T10:02:42.461Z,11.4
2023-03-29T10:05:13.149Z,11.6
2023-03-29T10:07:43.516Z,11.6
2023-03-29T10:10:14.681Z,11.7
2023-03-29T10:12:46.181Z,11.8
2023-03-29T10:15:28.955Z,11.9
2023-03-29T10:17:50.163Z,11.9
2023-03-29T10:20:21.924Z,11.9
2023-03-29T10:22:53.887Z,12
2023-03-29T10:25:26.672Z,12.1
2023-03-29T10:27:58.553Z,12.1
2023-03-29T10:30:31.414Z,12.1
2023-03-29T10:33:03.460Z,12.2
2023-03-29T10:35:35.157Z,12.1
2023-03-29T10:38:07.781Z,12
2023-03-29T10:40:39.604Z,12.1
2023-03-29T10:43:11.468Z,12.1
2023-03-29T10:45:43.300Z,12
2023-03-29T10:48:14.944Z,12.1
2023-03-29T10:50:46.704Z,12.1
2023-03-29T10:53:18.362Z,11.9
2023-03-29T10:55:51.349Z,12
2023-03-29T10:58:23.332Z,12.1
2023-03-29T11:00:55.064Z,12
2023-03-29T11:03:26.927Z,12.1
2023-03-29T11:05:59.705Z,12.1
2023-03-29T11:08:32.076Z,12.2
2023-03-29T11:11:06.495Z,12.2
2023-03-29T11:13:40.640Z,12.2
2023-03-29T11:16:14.500Z,12.3
2023-03-29T11:18:46.231Z,12.3
2023-03-29T11:21:18.035Z,12.3
2023-03-29T11:23:49.697Z,12.3
2023-03-29T11:26:22.279Z,12.4
2023-03-29T11:31:54.904Z,12.6
2023-03-29T11:34:26.724Z,12.7
2023-03-29T11:36:58.379Z,12.9
2023-03-29T11:39:30.138Z,12.9
2023-03-29T11:42:02.303Z,12.9
2023-03-29T11:44:38.497Z,12.7
2023-03-29T11:47:24.192Z,12.7
2023-03-29T11:49:58.255Z,12.9
2023-03-29T11:52:28.901Z,13
2023-03-29T11:55:04.153Z,12.9
2023-03-29T11:57:40.933Z,13
2023-03-29T12:00:16.892Z,13.1
2023-03-29T12:02:50.353Z,13.1
2023-03-29T12:05:28.166Z,13.1
2023-03-29T12:08:03.537Z,13
2023-03-29T12:10:39.531Z,13
2023-03-29T12:13:13.219Z,12.9
2023-03-29T12:15:52.396Z,12.9
2023-03-29T12:18:31.871Z,12.7
2023-03-29T12:21:12.001Z,12.8
2023-03-29T12:23:55.093Z,12.9
2023-03-29T12:26:26.279Z,13.2
2023-03-29T12:28:59.403Z,13.4
2023-03-29T12:31:28.715Z,13.5
2023-03-29T12:34:00.570Z,13.6
2023-03-29T12:36:38.009Z,13.8
2023-03-29T12:39:10.167Z,14
2023-03-29T12:41:44.759Z,14
2023-03-29T12:44:14.920Z,14.1
2023-03-29T12:46:48.441Z,14.3
2023-03-29T12:49:25.855Z,14.2
2023-03-29T12:52:02.015Z,14.5
2023-03-29T12:54:38.265Z,14.4
2023-03-29T12:57:10.081Z,14.7
2023-03-29T13:02:33.419Z,15
2023-03-29T13:05:07.829Z,15.1
2023-03-29T13:07:49.797Z,14.9
2023-03-29T13:10:33.097Z,14.8
2023-03-29T13:13:02.572Z,14.7
2023-03-29T13:18:39.161Z,14.2
2023-03-29T13:26:45.379Z,14.1
2023-03-29T13:32:08.206Z,14.3
2023-03-29T13:34:39.095Z,14.5
2023-03-29T13:37:09.400Z,14.6
2023-03-29T13:39:45.116Z,14.7
2023-03-29T13:42:15.362Z,14.8
2023-03-29T13:44:45.861Z,14.8
2023-03-29T13:47:18.994Z,14.8
2023-03-29T13:49:51.215Z,14.8
2023-03-29T13:52:19.475Z,14.8
2023-03-29T13:54:49.446Z,15
2023-03-29T13:57:31.425Z,14.9
2023-03-29T14:00:02.854Z,14.9
2023-03-29T14:02:33.510Z,14.6
2023-03-29T14:05:08.968Z,14.5
2023-03-29T14:07:41.169Z,14.4
2023-03-29T14:10:16.674Z,14.3
2023-03-29T14:15:25.229Z,14.4
2023-03-29T14:17:55.649Z,14.2
2023-03-29T14:20:25.878Z,14.1
2023-03-29T14:22:56.076Z,14.2
2023-03-29T14:25:26.462Z,14.2
2023-03-29T14:27:56.843Z,14.1
2023-03-29T14:30:30.788Z,13.9
2023-03-29T14:33:01.457Z,13.9
2023-03-29T14:35:31.641Z,13.9
2023-03-29T14:38:11.504Z,13.6
2023-03-29T14:40:42.109Z,13.6
2023-03-29T14:43:15.434Z,13.7
2023-03-29T14:45:45.926Z,13.8
2023-03-29T14:48:17.201Z,13.7
2023-03-29T14:50:51.316Z,13.7
2023-03-29T14:53:26.794Z,13.6
2023-03-29T14:56:00.104Z,13.6
2023-03-29T14:58:30.064Z,13.6
2023-03-29T15:01:14.225Z,13.4
2023-03-29T15:03:55.032Z,13.6
2023-03-29T15:06:33.081Z,13.5
2023-03-29T15:09:06.335Z,13.5
2023-03-29T15:11:34.090Z,13.5
2023-03-29T15:14:03.947Z,13.5
2023-03-29T15:16:35.568Z,13.5
2023-03-29T15:19:06.330Z,13.4
2023-03-29T15:21:36.826Z,13.4
2023-03-29T15:24:09.113Z,13.4
2023-03-29T15:26:43.183Z,13.5
2023-03-29T15:29:13.477Z,13.5
2023-03-29T15:31:42.646Z,13.5
2023-03-29T15:34:13.943Z,13.5
2023-03-29T15:36:44.485Z,13.5
2023-03-29T15:39:18.008Z,13.5
2023-03-29T15:41:49.097Z,13.4
2023-03-29T15:44:21.575Z,13.5
2023-03-29T15:46:53.974Z,13.3
2023-03-29T15:49:25.571Z,13.4
2023-03-29T15:51:55.980Z,13.4
2023-03-29T15:54:28.289Z,13.3
2023-03-29T15:56:59.131Z,13.3
2023-03-29T15:59:32.982Z,13.2
2023-03-29T16:02:03.031Z,13.2
2023-03-29T16:04:33.323Z,13.1
2023-03-29T16:07:03.763Z,13
2023-03-29T16:09:35.763Z,13.1
2023-03-29T16:12:06.343Z,13
2023-03-29T16:14:36.603Z,12.9
2023-03-29T16:17:07.742Z,12.9
2023-03-29T16:19:39.576Z,12.8
2023-03-29T16:22:11.032Z,12.8
2023-03-29T16:24:41.380Z,12.8
2023-03-29T16:27:11.867Z,12.7
2023-03-29T16:29:42.357Z,12.7
2023-03-29T16:32:12.817Z,12.8
2023-03-29T16:34:45.463Z,12.7
2023-03-29T16:37:20.913Z,12.7
2023-03-29T16:39:52.321Z,12.6
2023-03-29T16:42:24.799Z,12.6
2023-03-29T16:44:55.175Z,12.5
2023-03-29T16:47:26.138Z,12.5
2023-03-29T16:49:57.255Z,12.5
2023-03-29T16:52:36.435Z,12.4
2023-03-29T16:55:09.440Z,12.5
2023-03-29T16:57:39.872Z,12.4
2023-03-29T17:00:10.067Z,12.2
2023-03-29T17:02:40.747Z,12.1
2023-03-29T17:05:11.277Z,12.1
2023-03-29T17:07:46.799Z,12.1
2023-03-29T17:10:17.940Z,12.1
2023-03-29T17:12:50.148Z,12.1
2023-03-29T17:15:20.402Z,12.1
2023-03-29T17:17:50.622Z,12
2023-03-29T17:20:21.603Z,12.1
2023-03-29T17:22:53.157Z,12.1
2023-03-29T17:25:27.478Z,12
2023-03-29T17:27:58.466Z,12
2023-03-29T17:30:28.973Z,11.9
2023-03-29T17:33:00.380Z,11.9
2023-03-29T17:35:30.672Z,11.6
2023-03-29T17:38:04.326Z,11.7
2023-03-29T17:40:40.191Z,11.7
2023-03-29T17:43:10.216Z,11.7
2023-03-29T17:45:41.941Z,11.6
2023-03-29T17:48:12.056Z,11.7
2023-03-29T17:50:42.477Z,11.5
2023-03-29T17:53:13.243Z,11.4
2023-03-29T17:55:44.970Z,11.4
2023-03-29T17:58:16.632Z,11.4
2023-03-29T18:00:47.223Z,11.5
2023-03-29T18:03:16.652Z,11.5
2023-03-29T18:05:50.274Z,11.4
2023-03-29T18:10:53.897Z,11.3
2023-03-29T18:13:24.388Z,11.4
2023-03-29T18:16:00.459Z,11.2
2023-03-29T18:18:30.839Z,11.3
2023-03-29T18:21:00.886Z,11.3
2023-03-29T18:23:34.385Z,11.4
2023-03-29T18:26:19.099Z,11.3
2023-03-29T18:28:53.755Z,11.4
2023-03-29T18:31:23.453Z,11.3
2023-03-29T18:33:53.954Z,11.3
2023-03-29T18:36:38.841Z,11.3
2023-03-29T18:39:09.956Z,11.4
2023-03-29T18:41:46.583Z,11.4
2023-03-29T18:44:22.549Z,11.4
2023-03-29T18:47:00.731Z,11.4
2023-03-29T18:49:31.431Z,11.5
2023-03-29T18:52:19.258Z,11.4
2023-03-29T18:54:58.213Z,11.5
2023-03-29T18:57:35.100Z,11.5
2023-03-29T19:00:07.191Z,11.4
2023-03-29T19:02:41.577Z,11.4
2023-03-29T19:13:31.257Z,11.6
2023-03-29T19:16:06.773Z,11.5
2023-03-29T19:18:36.522Z,11.6
2023-03-29T19:21:06.328Z,11.4
2023-03-29T19:23:36.387Z,11.3
2023-03-29T19:26:10.630Z,11.1
2023-03-29T19:28:40.968Z,11.2
2023-03-29T19:31:11.306Z,11.2
2023-03-29T19:33:41.739Z,11.1
2023-03-29T19:36:11.947Z,11.1
2023-03-29T19:46:53.505Z,11.1
2023-03-29T19:55:22.167Z,11.1
2023-03-29T19:58:06.317Z,11
2023-03-29T20:00:36.628Z,11.1
2023-03-29T20:03:07.049Z,11.2
2023-03-29T20:05:41.348Z,11.1
2023-03-29T20:08:11.414Z,11.2
2023-03-29T20:10:41.524Z,11.1
2023-03-29T20:13:27.842Z,11.1
2023-03-29T20:15:59.266Z,11.1
2023-03-29T20:18:32.738Z,11
2023-03-29T20:21:02.958Z,11.1
2023-03-29T20:23:32.792Z,11.1
2023-03-29T20:26:09.170Z,11.1
2023-03-29T20:28:43.331Z,11.1
2023-03-29T20:31:13.736Z,11.2
2023-03-29T20:33:44.105Z,11.1
2023-03-29T20:36:14.606Z,11.1
2023-03-29T20:38:45.054Z,11
2023-03-29T20:41:15.263Z,11
2023-03-29T20:43:45.402Z,11
2023-03-29T20:46:15.797Z,11.1
2023-03-29T20:48:46.182Z,11.1
2023-03-29T20:51:14.864Z,11.1
2023-03-29T20:53:45.291Z,11
2023-03-29T20:56:15.331Z,11
2023-03-29T20:58:46.313Z,10.9
2023-03-29T21:01:16.395Z,10.8
2023-03-29T21:03:48.953Z,10.8
2023-03-29T21:06:19.195Z,10.8
2023-03-29T21:08:49.184Z,10.9
2023-03-29T21:11:19.467Z,10.9
2023-03-29T21:13:50.283Z,10.9
2023-03-29T21:16:20.951Z,10.9
2023-03-29T21:18:56.565Z,10.9
2023-03-29T21:21:26.776Z,10.9
2023-03-29T21:26:33.176Z,10.8
2023-03-29T21:29:03.628Z,10.9
2023-03-29T21:31:32.432Z,10.7
2023-03-29T21:34:02.466Z,10.6
2023-03-29T21:36:33.523Z,10.6
2023-03-29T21:39:03.990Z,10.6
2023-03-29T21:41:34.522Z,10.5
2023-03-29T21:46:57.452Z,10.6
2023-03-29T21:49:27.354Z,10.6
2023-03-29T21:51:57.441Z,10.6
2023-03-29T21:54:33.272Z,10.6
2023-03-29T21:57:03.916Z,10.7
2023-03-29T21:59:34.742Z,10.7
2023-03-29T22:02:05.492Z,10.7
2023-03-29T22:04:37.341Z,10.8
2023-03-29T22:07:06.405Z,10.8
2023-03-29T22:09:37.222Z,10.8
2023-03-29T22:12:08.080Z,10.8
2023-03-29T22:14:38.747Z,10.8
2023-03-29T22:17:09.366Z,10.8
2023-03-29T22:19:40.291Z,10.8
2023-03-29T22:22:10.826Z,10.9
2023-03-29T22:24:40.801Z,10.9
2023-03-29T22:27:11.755Z,10.9
2023-03-29T22:29:47.424Z,10.9
2023-03-29T22:32:18.251Z,10.9
2023-03-29T22:34:48.323Z,10.8
2023-03-29T22:37:18.840Z,10.9
2023-03-29T22:39:54.833Z,10.8
2023-03-29T22:42:31.061Z,10.9
2023-03-29T22:45:10.626Z,10.9
2023-03-29T22:47:40.683Z,10.8
2023-03-29T22:50:11.785Z,10.7
2023-03-29T22:52:43.660Z,10.8
2023-03-29T22:55:13.523Z,10.8
2023-03-29T22:57:44.323Z,10.8
2023-03-29T23:00:15.053Z,10.8
2023-03-29T23:02:45.457Z,10.8
2023-03-29T23:05:16.019Z,10.8
2023-03-29T23:07:46.780Z,10.8
2023-03-29T23:10:17.622Z,10.7
2023-03-29T23:12:48.616Z,10.7
2023-03-29T23:15:19.149Z,10.7
2023-03-29T23:17:49.806Z,10.7
2023-03-29T23:20:32.548Z,10.7
2023-03-29T23:23:06.608Z,10.8
2023-03-29T23:25:41.230Z,10.8
2023-03-29T23:28:11.821Z,10.8
2023-03-29T23:30:42.265Z,10.8
2023-03-29T23:33:11.422Z,10.8
2023-03-29T23:35:41.934Z,10.8
2023-03-29T23:38:12.393Z,10.7
2023-03-29T23:40:42.895Z,10.8
2023-03-29T23:43:17.041Z,10.8
2023-03-29T23:45:49.299Z,10.7
2023-03-29T23:48:19.999Z,10.7
2023-03-29T23:50:51.080Z,10.8
2023-03-29T23:53:21.934Z,10.8
2023-03-29T23:55:52.085Z,10.8
2023-03-29T23:58:22.251Z,10.6
